sensor_id;sensor_type;location;lat;lon;timestamp;temperature;humidity
69626;DHT22;56847;51.984;5.088;2023-10-19T00:00:36;14.20;81.60
69626;DHT22;56847;51.984;5.088;2023-10-19T00:03:07;14.20;81.60
69626;DHT22;56847;51.984;5.088;2023-10-19T00:05:35;14.20;81.70
69626;DHT22;56847;51.984;5.088;2023-10-19T00:08:05;14.30;81.80
69626;DHT22;56847;51.984;5.088;2023-10-19T00:10:46;14.30;81.90
69626;DHT22;56847;51.984;5.088;2023-10-19T00:13:32;14.30;81.90
69626;DHT22;56847;51.984;5.088;2023-10-19T00:16:02;14.30;82.00
69626;DHT22;56847;51.984;5.088;2023-10-19T00:18:38;14.40;82.10
69626;DHT22;56847;51.984;5.088;2023-10-19T00:21:10;14.40;82.20
69626;DHT22;56847;51.984;5.088;2023-10-19T00:23:47;14.40;82.20
69626;DHT22;56847;51.984;5.088;2023-10-19T00:26:16;14.40;82.20
69626;DHT22;56847;51.984;5.088;2023-10-19T00:28:55;14.40;82.20
69626;DHT22;56847;51.984;5.088;2023-10-19T00:31:25;14.40;82.30
69626;DHT22;56847;51.984;5.088;2023-10-19T00:33:57;14.50;82.30
69626;DHT22;56847;51.984;5.088;2023-10-19T00:36:24;14.50;82.20
69626;DHT22;56847;51.984;5.088;2023-10-19T00:38:55;14.50;82.30
69626;DHT22;56847;51.984;5.088;2023-10-19T00:41:25;14.50;82.30
69626;DHT22;56847;51.984;5.088;2023-10-19T00:44:00;14.50;82.50
69626;DHT22;56847;51.984;5.088;2023-10-19T00:46:31;14.50;82.50
69626;DHT22;56847;51.984;5.088;2023-10-19T00:49:05;14.60;82.60
69626;DHT22;56847;51.984;5.088;2023-10-19T00:51:38;14.60;82.60
69626;DHT22;56847;51.984;5.088;2023-10-19T00:54:34;14.70;82.60
69626;DHT22;56847;51.984;5.088;2023-10-19T00:57:06;14.70;82.70
69626;DHT22;56847;51.984;5.088;2023-10-19T00:59:38;14.70;82.80
69626;DHT22;56847;51.984;5.088;2023-10-19T01:02:10;14.70;82.80
69626;DHT22;56847;51.984;5.088;2023-10-19T01:04:54;14.70;82.80
69626;DHT22;56847;51.984;5.088;2023-10-19T01:07:48;14.80;82.90
69626;DHT22;56847;51.984;5.088;2023-10-19T01:10:22;14.80;82.90
69626;DHT22;56847;51.984;5.088;2023-10-19T01:12:51;14.80;83.00
69626;DHT22;56847;51.984;5.088;2023-10-19T01:15:20;14.80;83.10
69626;DHT22;56847;51.984;5.088;2023-10-19T01:17:58;14.90;83.20
69626;DHT22;56847;51.984;5.088;2023-10-19T01:20:30;14.90;83.20
69626;DHT22;56847;51.984;5.088;2023-10-19T01:23:04;14.90;83.30
69626;DHT22;56847;51.984;5.088;2023-10-19T01:25:48;14.90;83.40
69626;DHT22;56847;51.984;5.088;2023-10-19T01:31:18;15.00;83.50
69626;DHT22;56847;51.984;5.088;2023-10-19T01:33:59;15.00;83.50
69626;DHT22;56847;51.984;5.088;2023-10-19T01:36:33;15.10;83.70
69626;DHT22;56847;51.984;5.088;2023-10-19T01:39:10;15.10;83.90
69626;DHT22;56847;51.984;5.088;2023-10-19T01:41:39;15.20;84.00
69626;DHT22;56847;51.984;5.088;2023-10-19T01:44:09;15.20;84.00
69626;DHT22;56847;51.984;5.088;2023-10-19T01:46:41;15.30;84.10
69626;DHT22;56847;51.984;5.088;2023-10-19T01:49:11;15.40;84.10
69626;DHT22;56847;51.984;5.088;2023-10-19T01:51:39;15.40;84.00
69626;DHT22;56847;51.984;5.088;2023-10-19T01:54:08;15.40;84.10
69626;DHT22;56847;51.984;5.088;2023-10-19T01:56:35;15.50;84.10
69626;DHT22;56847;51.984;5.088;2023-10-19T01:59:04;15.50;84.10
69626;DHT22;56847;51.984;5.088;2023-10-19T02:01:32;15.60;84.10
69626;DHT22;56847;51.984;5.088;2023-10-19T02:04:04;15.70;84.10
69626;DHT22;56847;51.984;5.088;2023-10-19T02:06:34;15.70;84.10
69626;DHT22;56847;51.984;5.088;2023-10-19T02:09:08;15.80;84.20
69626;DHT22;56847;51.984;5.088;2023-10-19T02:12:04;15.80;84.20
69626;DHT22;56847;51.984;5.088;2023-10-19T02:14:34;15.80;84.30
69626;DHT22;56847;51.984;5.088;2023-10-19T02:17:01;15.80;84.20
69626;DHT22;56847;51.984;5.088;2023-10-19T02:19:31;15.80;84.10
69626;DHT22;56847;51.984;5.088;2023-10-19T02:22:02;15.90;84.20
69626;DHT22;56847;51.984;5.088;2023-10-19T02:24:36;15.90;84.30
69626;DHT22;56847;51.984;5.088;2023-10-19T02:27:04;16.00;84.20
69626;DHT22;56847;51.984;5.088;2023-10-19T02:29:34;16.00;84.20
69626;DHT22;56847;51.984;5.088;2023-10-19T02:32:04;16.00;84.10
69626;DHT22;56847;51.984;5.088;2023-10-19T02:34:33;16.10;84.20
69626;DHT22;56847;51.984;5.088;2023-10-19T02:37:03;16.10;84.20
69626;DHT22;56847;51.984;5.088;2023-10-19T02:39:30;16.10;84.20
69626;DHT22;56847;51.984;5.088;2023-10-19T02:41:58;16.20;84.10
69626;DHT22;56847;51.984;5.088;2023-10-19T02:44:28;16.20;84.10
69626;DHT22;56847;51.984;5.088;2023-10-19T02:46:58;16.20;84.00
69626;DHT22;56847;51.984;5.088;2023-10-19T02:49:28;16.20;84.00
69626;DHT22;56847;51.984;5.088;2023-10-19T02:51:57;16.20;84.10
69626;DHT22;56847;51.984;5.088;2023-10-19T02:54:31;16.20;84.20
69626;DHT22;56847;51.984;5.088;2023-10-19T02:57:03;16.30;84.20
69626;DHT22;56847;51.984;5.088;2023-10-19T02:59:35;16.30;84.10
69626;DHT22;56847;51.984;5.088;2023-10-19T03:02:03;16.30;84.20
69626;DHT22;56847;51.984;5.088;2023-10-19T03:04:41;16.30;84.20
69626;DHT22;56847;51.984;5.088;2023-10-19T03:07:10;16.30;84.30
69626;DHT22;56847;51.984;5.088;2023-10-19T03:09:40;16.30;84.20
69626;DHT22;56847;51.984;5.088;2023-10-19T03:12:16;16.40;84.30
69626;DHT22;56847;51.984;5.088;2023-10-19T03:14:44;16.30;84.30
69626;DHT22;56847;51.984;5.088;2023-10-19T03:17:16;16.40;84.20
69626;DHT22;56847;51.984;5.088;2023-10-19T03:19:44;16.40;84.20
69626;DHT22;56847;51.984;5.088;2023-10-19T03:22:11;16.40;84.30
69626;DHT22;56847;51.984;5.088;2023-10-19T03:24:39;16.40;84.30
69626;DHT22;56847;51.984;5.088;2023-10-19T03:27:15;16.40;84.30
69626;DHT22;56847;51.984;5.088;2023-10-19T03:29:50;16.50;84.30
69626;DHT22;56847;51.984;5.088;2023-10-19T03:32:41;16.50;84.30
69626;DHT22;56847;51.984;5.088;2023-10-19T03:35:09;16.50;84.40
69626;DHT22;56847;51.984;5.088;2023-10-19T03:37:42;16.50;84.30
69626;DHT22;56847;51.984;5.088;2023-10-19T03:40:10;16.50;84.30
69626;DHT22;56847;51.984;5.088;2023-10-19T03:42:42;16.50;84.50
69626;DHT22;56847;51.984;5.088;2023-10-19T03:45:12;16.50;84.50
69626;DHT22;56847;51.984;5.088;2023-10-19T03:47:42;16.50;84.40
69626;DHT22;56847;51.984;5.088;2023-10-19T03:50:11;16.50;84.50
69626;DHT22;56847;51.984;5.088;2023-10-19T03:52:50;16.50;84.60
69626;DHT22;56847;51.984;5.088;2023-10-19T03:55:20;16.60;84.60
69626;DHT22;56847;51.984;5.088;2023-10-19T03:57:50;16.60;84.40
69626;DHT22;56847;51.984;5.088;2023-10-19T04:00:24;16.60;84.40
69626;DHT22;56847;51.984;5.088;2023-10-19T04:02:58;16.60;84.10
69626;DHT22;56847;51.984;5.088;2023-10-19T04:05:26;16.50;83.80
69626;DHT22;56847;51.984;5.088;2023-10-19T04:07:55;16.50;83.70
69626;DHT22;56847;51.984;5.088;2023-10-19T04:10:26;16.40;83.80
69626;DHT22;56847;51.984;5.088;2023-10-19T04:12:59;16.40;83.70
69626;DHT22;56847;51.984;5.088;2023-10-19T04:15:29;16.30;83.70
69626;DHT22;56847;51.984;5.088;2023-10-19T04:17:59;16.20;83.80
69626;DHT22;56847;51.984;5.088;2023-10-19T04:20:29;16.20;83.80
69626;DHT22;56847;51.984;5.088;2023-10-19T04:23:03;16.10;83.90
69626;DHT22;56847;51.984;5.088;2023-10-19T04:25:39;16.10;84.20
69626;DHT22;56847;51.984;5.088;2023-10-19T04:28:09;16.10;84.20
69626;DHT22;56847;51.984;5.088;2023-10-19T04:30:37;16.10;84.40
69626;DHT22;56847;51.984;5.088;2023-10-19T04:33:05;16.10;84.50
69626;DHT22;56847;51.984;5.088;2023-10-19T04:35:38;16.20;84.50
69626;DHT22;56847;51.984;5.088;2023-10-19T04:38:08;16.20;84.50
69626;DHT22;56847;51.984;5.088;2023-10-19T04:40:36;16.20;84.50
69626;DHT22;56847;51.984;5.088;2023-10-19T04:43:04;16.30;84.50
69626;DHT22;56847;51.984;5.088;2023-10-19T04:45:33;16.30;84.30
69626;DHT22;56847;51.984;5.088;2023-10-19T04:48:00;16.30;84.30
69626;DHT22;56847;51.984;5.088;2023-10-19T04:50:30;16.30;84.30
69626;DHT22;56847;51.984;5.088;2023-10-19T04:52:57;16.40;84.20
69626;DHT22;56847;51.984;5.088;2023-10-19T04:55:24;16.40;84.20
69626;DHT22;56847;51.984;5.088;2023-10-19T04:57:52;16.40;84.20
69626;DHT22;56847;51.984;5.088;2023-10-19T05:00:19;16.40;84.20
69626;DHT22;56847;51.984;5.088;2023-10-19T05:02:55;16.40;84.10
69626;DHT22;56847;51.984;5.088;2023-10-19T05:05:23;16.40;84.10
69626;DHT22;56847;51.984;5.088;2023-10-19T05:07:51;16.40;84.10
69626;DHT22;56847;51.984;5.088;2023-10-19T05:10:18;16.40;84.00
69626;DHT22;56847;51.984;5.088;2023-10-19T05:12:47;16.40;84.10
69626;DHT22;56847;51.984;5.088;2023-10-19T05:15:16;16.50;84.00
69626;DHT22;56847;51.984;5.088;2023-10-19T05:17:45;16.50;84.00
69626;DHT22;56847;51.984;5.088;2023-10-19T05:20:13;16.50;84.00
69626;DHT22;56847;51.984;5.088;2023-10-19T05:22:40;16.50;84.10
69626;DHT22;56847;51.984;5.088;2023-10-19T05:25:08;16.50;84.10
69626;DHT22;56847;51.984;5.088;2023-10-19T05:27:40;16.50;84.10
69626;DHT22;56847;51.984;5.088;2023-10-19T05:30:09;16.50;84.10
69626;DHT22;56847;51.984;5.088;2023-10-19T05:32:39;16.50;84.00
69626;DHT22;56847;51.984;5.088;2023-10-19T05:35:07;16.50;84.00
69626;DHT22;56847;51.984;5.088;2023-10-19T05:37:35;16.50;84.10
69626;DHT22;56847;51.984;5.088;2023-10-19T05:40:11;16.50;84.10
69626;DHT22;56847;51.984;5.088;2023-10-19T05:42:42;16.50;84.10
69626;DHT22;56847;51.984;5.088;2023-10-19T05:45:09;16.60;84.20
69626;DHT22;56847;51.984;5.088;2023-10-19T05:47:40;16.60;84.10
69626;DHT22;56847;51.984;5.088;2023-10-19T05:50:07;16.60;84.10
69626;DHT22;56847;51.984;5.088;2023-10-19T05:52:39;16.60;84.00
69626;DHT22;56847;51.984;5.088;2023-10-19T05:55:08;16.60;84.00
69626;DHT22;56847;51.984;5.088;2023-10-19T05:57:39;16.70;84.10
69626;DHT22;56847;51.984;5.088;2023-10-19T06:00:11;16.70;84.00
69626;DHT22;56847;51.984;5.088;2023-10-19T06:02:45;16.70;84.00
69626;DHT22;56847;51.984;5.088;2023-10-19T06:05:14;16.70;84.00
69626;DHT22;56847;51.984;5.088;2023-10-19T06:07:48;16.70;83.80
69626;DHT22;56847;51.984;5.088;2023-10-19T06:10:18;16.70;83.70
69626;DHT22;56847;51.984;5.088;2023-10-19T06:12:51;16.60;83.70
69626;DHT22;56847;51.984;5.088;2023-10-19T06:15:22;16.60;83.80
69626;DHT22;56847;51.984;5.088;2023-10-19T06:17:52;16.60;83.80
69626;DHT22;56847;51.984;5.088;2023-10-19T06:20:23;16.60;83.80
69626;DHT22;56847;51.984;5.088;2023-10-19T06:22:57;16.60;83.70
69626;DHT22;56847;51.984;5.088;2023-10-19T06:25:33;16.60;83.70
69626;DHT22;56847;51.984;5.088;2023-10-19T06:28:03;16.60;83.70
69626;DHT22;56847;51.984;5.088;2023-10-19T06:30:33;16.60;83.60
69626;DHT22;56847;51.984;5.088;2023-10-19T06:33:01;16.60;83.60
69626;DHT22;56847;51.984;5.088;2023-10-19T06:35:30;16.60;83.60
69626;DHT22;56847;51.984;5.088;2023-10-19T06:38:05;16.60;83.70
69626;DHT22;56847;51.984;5.088;2023-10-19T06:40:34;16.50;83.70
69626;DHT22;56847;51.984;5.088;2023-10-19T06:43:03;16.60;83.70
69626;DHT22;56847;51.984;5.088;2023-10-19T06:45:32;16.60;83.80
69626;DHT22;56847;51.984;5.088;2023-10-19T06:48:02;16.60;83.70
69626;DHT22;56847;51.984;5.088;2023-10-19T06:50:34;16.60;83.90
69626;DHT22;56847;51.984;5.088;2023-10-19T06:53:03;16.60;84.10
69626;DHT22;56847;51.984;5.088;2023-10-19T06:55:32;16.60;84.00
69626;DHT22;56847;51.984;5.088;2023-10-19T06:58:00;16.70;84.10
69626;DHT22;56847;51.984;5.088;2023-10-19T07:00:28;16.70;84.10
69626;DHT22;56847;51.984;5.088;2023-10-19T07:02:56;16.70;84.20
69626;DHT22;56847;51.984;5.088;2023-10-19T07:05:24;16.80;84.10
69626;DHT22;56847;51.984;5.088;2023-10-19T07:07:53;16.80;84.10
69626;DHT22;56847;51.984;5.088;2023-10-19T07:10:22;16.80;84.00
69626;DHT22;56847;51.984;5.088;2023-10-19T07:12:54;16.80;84.00
69626;DHT22;56847;51.984;5.088;2023-10-19T07:15:25;16.90;84.10
69626;DHT22;56847;51.984;5.088;2023-10-19T07:17:54;16.90;84.00
69626;DHT22;56847;51.984;5.088;2023-10-19T07:20:22;17.00;83.90
69626;DHT22;56847;51.984;5.088;2023-10-19T07:22:58;17.00;84.00
69626;DHT22;56847;51.984;5.088;2023-10-19T07:25:46;17.10;83.90
69626;DHT22;56847;51.984;5.088;2023-10-19T07:28:27;17.10;83.90
69626;DHT22;56847;51.984;5.088;2023-10-19T07:30:56;17.10;83.90
69626;DHT22;56847;51.984;5.088;2023-10-19T07:33:27;17.10;84.00
69626;DHT22;56847;51.984;5.088;2023-10-19T07:35:55;17.20;83.90
69626;DHT22;56847;51.984;5.088;2023-10-19T07:38:23;17.20;84.00
69626;DHT22;56847;51.984;5.088;2023-10-19T07:40:51;17.20;84.00
69626;DHT22;56847;51.984;5.088;2023-10-19T07:43:22;17.30;83.90
69626;DHT22;56847;51.984;5.088;2023-10-19T07:45:50;17.30;83.80
69626;DHT22;56847;51.984;5.088;2023-10-19T07:48:20;17.40;83.70
69626;DHT22;56847;51.984;5.088;2023-10-19T07:50:48;17.40;83.60
69626;DHT22;56847;51.984;5.088;2023-10-19T07:53:16;17.40;83.50
69626;DHT22;56847;51.984;5.088;2023-10-19T07:55:44;17.40;83.50
69626;DHT22;56847;51.984;5.088;2023-10-19T07:58:13;17.40;83.50
69626;DHT22;56847;51.984;5.088;2023-10-19T08:00:42;17.50;83.50
69626;DHT22;56847;51.984;5.088;2023-10-19T08:03:11;17.50;83.50
69626;DHT22;56847;51.984;5.088;2023-10-19T08:05:41;17.50;83.60
69626;DHT22;56847;51.984;5.088;2023-10-19T08:08:10;17.50;83.50
69626;DHT22;56847;51.984;5.088;2023-10-19T08:10:40;17.60;83.60
69626;DHT22;56847;51.984;5.088;2023-10-19T09:50:37;20.30;81.70
69626;DHT22;56847;51.984;5.088;2023-10-19T09:53:12;20.30;81.30
69626;DHT22;56847;51.984;5.088;2023-10-19T09:55:43;20.30;81.40
69626;DHT22;56847;51.984;5.088;2023-10-19T09:58:23;20.30;81.10
69626;DHT22;56847;51.984;5.088;2023-10-19T10:00:54;20.30;81.50
69626;DHT22;56847;51.984;5.088;2023-10-19T10:03:50;20.40;81.50
69626;DHT22;56847;51.984;5.088;2023-10-19T10:06:56;20.60;81.70
69626;DHT22;56847;51.984;5.088;2023-10-19T10:09:19;20.80;81.80
69626;DHT22;56847;51.984;5.088;2023-10-19T10:11:54;21.00;81.50
69626;DHT22;56847;51.984;5.088;2023-10-19T10:14:24;21.10;80.90
69626;DHT22;56847;51.984;5.088;2023-10-19T10:17:02;21.10;80.50
69626;DHT22;56847;51.984;5.088;2023-10-19T10:19:30;21.10;79.70
69626;DHT22;56847;51.984;5.088;2023-10-19T10:22:08;21.00;79.50
69626;DHT22;56847;51.984;5.088;2023-10-19T10:24:54;21.00;79.30
69626;DHT22;56847;51.984;5.088;2023-10-19T10:27:27;21.00;79.40
69626;DHT22;56847;51.984;5.088;2023-10-19T10:29:59;21.00;79.20
69626;DHT22;56847;51.984;5.088;2023-10-19T10:32:56;20.90;79.20
69626;DHT22;56847;51.984;5.088;2023-10-19T10:38:10;20.80;78.70
69626;DHT22;56847;51.984;5.088;2023-10-19T10:40:50;20.80;79.20
69626;DHT22;56847;51.984;5.088;2023-10-19T10:43:23;20.80;79.30
69626;DHT22;56847;51.984;5.088;2023-10-19T10:46:06;20.90;79.70
69626;DHT22;56847;51.984;5.088;2023-10-19T10:48:41;21.10;79.50
69626;DHT22;56847;51.984;5.088;2023-10-19T10:51:25;21.20;79.30
69626;DHT22;56847;51.984;5.088;2023-10-19T10:53:57;21.40;79.50
69626;DHT22;56847;51.984;5.088;2023-10-19T10:56:26;21.70;79.80
69626;DHT22;56847;51.984;5.088;2023-10-19T10:58:56;21.90;79.40
69626;DHT22;56847;51.984;5.088;2023-10-19T11:01:33;22.10;78.70
69626;DHT22;56847;51.984;5.088;2023-10-19T11:04:11;22.20;77.90
69626;DHT22;56847;51.984;5.088;2023-10-19T11:06:53;22.30;77.60
69626;DHT22;56847;51.984;5.088;2023-10-19T11:09:26;22.50;77.00
69626;DHT22;56847;51.984;5.088;2023-10-19T11:11:57;22.50;76.00
69626;DHT22;56847;51.984;5.088;2023-10-19T11:14:25;22.30;75.80
69626;DHT22;56847;51.984;5.088;2023-10-19T11:16:53;22.20;75.20
69626;DHT22;56847;51.984;5.088;2023-10-19T11:19:38;22.00;75.10
69626;DHT22;56847;51.984;5.088;2023-10-19T11:22:10;21.90;75.00
69626;DHT22;56847;51.984;5.088;2023-10-19T11:24:39;21.90;75.40
69626;DHT22;56847;51.984;5.088;2023-10-19T11:27:10;21.90;74.80
69626;DHT22;56847;51.984;5.088;2023-10-19T11:29:53;21.80;74.50
69626;DHT22;56847;51.984;5.088;2023-10-19T11:32:22;21.80;74.30
69626;DHT22;56847;51.984;5.088;2023-10-19T11:34:55;21.70;74.50
69626;DHT22;56847;51.984;5.088;2023-10-19T11:37:23;21.70;74.30
69626;DHT22;56847;51.984;5.088;2023-10-19T11:39:51;21.60;74.60
69626;DHT22;56847;51.984;5.088;2023-10-19T11:42:22;21.60;74.50
69626;DHT22;56847;51.984;5.088;2023-10-19T11:44:50;21.60;74.70
69626;DHT22;56847;51.984;5.088;2023-10-19T11:47:18;21.70;74.70
69626;DHT22;56847;51.984;5.088;2023-10-19T11:49:46;21.80;74.70
69626;DHT22;56847;51.984;5.088;2023-10-19T11:52:18;21.90;74.30
69626;DHT22;56847;51.984;5.088;2023-10-19T11:54:49;21.90;73.70
69626;DHT22;56847;51.984;5.088;2023-10-19T11:57:19;21.80;73.20
69626;DHT22;56847;51.984;5.088;2023-10-19T11:59:47;21.70;73.10
69626;DHT22;56847;51.984;5.088;2023-10-19T12:02:25;21.60;73.40
69626;DHT22;56847;51.984;5.088;2023-10-19T12:04:55;21.60;73.40
69626;DHT22;56847;51.984;5.088;2023-10-19T12:07:23;21.60;73.30
69626;DHT22;56847;51.984;5.088;2023-10-19T12:09:51;21.50;73.10
69626;DHT22;56847;51.984;5.088;2023-10-19T12:12:22;21.50;73.20
69626;DHT22;56847;51.984;5.088;2023-10-19T12:14:51;21.40;73.10
69626;DHT22;56847;51.984;5.088;2023-10-19T12:17:25;21.40;73.10
69626;DHT22;56847;51.984;5.088;2023-10-19T12:19:58;21.40;73.50
69626;DHT22;56847;51.984;5.088;2023-10-19T12:22:40;21.40;73.50
69626;DHT22;56847;51.984;5.088;2023-10-19T12:25:13;21.40;73.10
69626;DHT22;56847;51.984;5.088;2023-10-19T12:27:42;21.40;72.70
69626;DHT22;56847;51.984;5.088;2023-10-19T12:30:11;21.40;72.60
69626;DHT22;56847;51.984;5.088;2023-10-19T13:48:07;20.70;74.70
69626;DHT22;56847;51.984;5.088;2023-10-19T13:50:34;20.80;74.60
69626;DHT22;56847;51.984;5.088;2023-10-19T13:53:03;20.80;74.30
69626;DHT22;56847;51.984;5.088;2023-10-19T13:55:31;20.80;73.90
69626;DHT22;56847;51.984;5.088;2023-10-19T13:58:00;20.70;73.90
69626;DHT22;56847;51.984;5.088;2023-10-19T14:00:28;20.70;73.90
69626;DHT22;56847;51.984;5.088;2023-10-19T14:03:02;20.60;73.90
69626;DHT22;56847;51.984;5.088;2023-10-19T14:05:42;20.60;74.00
69626;DHT22;56847;51.984;5.088;2023-10-19T14:08:10;20.50;74.20
69626;DHT22;56847;51.984;5.088;2023-10-19T14:10:37;20.40;74.30
69626;DHT22;56847;51.984;5.088;2023-10-19T14:13:09;20.40;74.40
69626;DHT22;56847;51.984;5.088;2023-10-19T14:15:41;20.40;74.50
69626;DHT22;56847;51.984;5.088;2023-10-19T14:18:10;20.40;74.50
69626;DHT22;56847;51.984;5.088;2023-10-19T14:20:38;20.30;74.60
69626;DHT22;56847;51.984;5.088;2023-10-19T14:23:07;20.30;74.60
69626;DHT22;56847;51.984;5.088;2023-10-19T14:25:38;20.20;74.70
69626;DHT22;56847;51.984;5.088;2023-10-19T14:28:10;20.10;74.70
69626;DHT22;56847;51.984;5.088;2023-10-19T14:30:38;20.10;74.70
69626;DHT22;56847;51.984;5.088;2023-10-19T14:33:05;20.00;74.80
69626;DHT22;56847;51.984;5.088;2023-10-19T14:35:38;19.90;75.00
69626;DHT22;56847;51.984;5.088;2023-10-19T14:38:09;19.80;75.20
69626;DHT22;56847;51.984;5.088;2023-10-19T14:40:39;19.80;75.40
69626;DHT22;56847;51.984;5.088;2023-10-19T14:43:10;19.80;75.40
69626;DHT22;56847;51.984;5.088;2023-10-19T14:45:40;19.70;75.60
69626;DHT22;56847;51.984;5.088;2023-10-19T14:48:08;19.70;75.70
69626;DHT22;56847;51.984;5.088;2023-10-19T14:50:37;19.70;75.80
69626;DHT22;56847;51.984;5.088;2023-10-19T14:53:04;19.60;75.90
69626;DHT22;56847;51.984;5.088;2023-10-19T14:55:32;19.60;76.00
69626;DHT22;56847;51.984;5.088;2023-10-19T14:58:00;19.60;76.20
69626;DHT22;56847;51.984;5.088;2023-10-19T15:00:29;19.60;76.30
69626;DHT22;56847;51.984;5.088;2023-10-19T15:03:08;19.70;76.40
69626;DHT22;56847;51.984;5.088;2023-10-19T15:05:37;19.70;76.50
69626;DHT22;56847;51.984;5.088;2023-10-19T15:08:05;19.70;76.60
69626;DHT22;56847;51.984;5.088;2023-10-19T15:10:35;19.80;76.60
69626;DHT22;56847;51.984;5.088;2023-10-19T15:13:03;19.80;76.50
69626;DHT22;56847;51.984;5.088;2023-10-19T15:15:32;19.80;76.70
69626;DHT22;56847;51.984;5.088;2023-10-19T15:17:59;19.90;76.80
69626;DHT22;56847;51.984;5.088;2023-10-19T15:20:28;20.00;77.00
69626;DHT22;56847;51.984;5.088;2023-10-19T15:22:57;20.10;77.10
69626;DHT22;56847;51.984;5.088;2023-10-19T15:25:25;20.30;77.10
69626;DHT22;56847;51.984;5.088;2023-10-19T15:27:53;20.50;76.70
69626;DHT22;56847;51.984;5.088;2023-10-19T15:30:24;20.70;76.60
69626;DHT22;56847;51.984;5.088;2023-10-19T15:32:52;20.80;75.90
69626;DHT22;56847;51.984;5.088;2023-10-19T15:35:23;20.80;75.10
69626;DHT22;56847;51.984;5.088;2023-10-19T15:37:52;20.80;74.40
69626;DHT22;56847;51.984;5.088;2023-10-19T15:40:24;20.60;74.40
69626;DHT22;56847;51.984;5.088;2023-10-19T15:42:52;20.40;74.30
69626;DHT22;56847;51.984;5.088;2023-10-19T15:45:22;20.30;74.30
69626;DHT22;56847;51.984;5.088;2023-10-19T15:47:54;20.10;74.50
69626;DHT22;56847;51.984;5.088;2023-10-19T15:50:22;20.00;74.80
69626;DHT22;56847;51.984;5.088;2023-10-19T15:52:50;19.80;75.00
69626;DHT22;56847;51.984;5.088;2023-10-19T15:55:20;19.70;75.20
69626;DHT22;56847;51.984;5.088;2023-10-19T15:57:49;19.60;75.50
69626;DHT22;56847;51.984;5.088;2023-10-19T16:00:21;19.50;75.70
69626;DHT22;56847;51.984;5.088;2023-10-19T16:02:49;19.50;75.80
69626;DHT22;56847;51.984;5.088;2023-10-19T16:05:17;19.40;75.90
69626;DHT22;56847;51.984;5.088;2023-10-19T16:07:46;19.30;76.00
69626;DHT22;56847;51.984;5.088;2023-10-19T16:10:13;19.20;76.20
69626;DHT22;56847;51.984;5.088;2023-10-19T16:12:41;19.20;76.30
69626;DHT22;56847;51.984;5.088;2023-10-19T16:15:12;19.10;76.40
69626;DHT22;56847;51.984;5.088;2023-10-19T16:17:40;19.10;76.50
69626;DHT22;56847;51.984;5.088;2023-10-19T16:20:10;19.00;76.60
69626;DHT22;56847;51.984;5.088;2023-10-19T16:22:40;18.90;76.80
69626;DHT22;56847;51.984;5.088;2023-10-19T16:25:07;18.90;76.80
69626;DHT22;56847;51.984;5.088;2023-10-19T16:27:35;18.90;76.90
69626;DHT22;56847;51.984;5.088;2023-10-19T16:30:02;18.80;77.00
69626;DHT22;56847;51.984;5.088;2023-10-19T16:32:31;18.80;77.10
69626;DHT22;56847;51.984;5.088;2023-10-19T16:35:05;18.80;77.30
69626;DHT22;56847;51.984;5.088;2023-10-19T16:37:33;18.80;77.70
69626;DHT22;56847;51.984;5.088;2023-10-19T16:40:00;18.80;78.00
69626;DHT22;56847;51.984;5.088;2023-10-19T16:42:27;18.90;78.30
69626;DHT22;56847;51.984;5.088;2023-10-19T16:44:54;18.90;78.20
69626;DHT22;56847;51.984;5.088;2023-10-19T16:47:23;19.00;78.30
69626;DHT22;56847;51.984;5.088;2023-10-19T16:49:51;19.00;78.50
69626;DHT22;56847;51.984;5.088;2023-10-19T16:52:18;19.10;78.60
69626;DHT22;56847;51.984;5.088;2023-10-19T16:54:45;19.10;78.60
69626;DHT22;56847;51.984;5.088;2023-10-19T16:57:13;19.10;78.40
69626;DHT22;56847;51.984;5.088;2023-10-19T16:59:40;19.10;78.40
69626;DHT22;56847;51.984;5.088;2023-10-19T17:02:07;19.20;78.50
69626;DHT22;56847;51.984;5.088;2023-10-19T17:04:34;19.20;78.60
69626;DHT22;56847;51.984;5.088;2023-10-19T17:07:02;19.20;78.70
69626;DHT22;56847;51.984;5.088;2023-10-19T17:09:29;19.20;78.40
69626;DHT22;56847;51.984;5.088;2023-10-19T17:12:01;19.20;78.40
69626;DHT22;56847;51.984;5.088;2023-10-19T17:14:28;19.20;78.50
69626;DHT22;56847;51.984;5.088;2023-10-19T17:16:55;19.20;78.70
69626;DHT22;56847;51.984;5.088;2023-10-19T17:19:23;19.20;78.60
69626;DHT22;56847;51.984;5.088;2023-10-19T17:21:52;19.20;78.40
69626;DHT22;56847;51.984;5.088;2023-10-19T17:24:19;19.20;78.30
69626;DHT22;56847;51.984;5.088;2023-10-19T17:26:47;19.20;78.20
69626;DHT22;56847;51.984;5.088;2023-10-19T17:29:14;19.20;78.10
69626;DHT22;56847;51.984;5.088;2023-10-19T17:31:41;19.20;78.20
69626;DHT22;56847;51.984;5.088;2023-10-19T17:34:10;19.20;78.20
69626;DHT22;56847;51.984;5.088;2023-10-19T17:36:37;19.30;78.20
69626;DHT22;56847;51.984;5.088;2023-10-19T17:39:04;19.30;78.10
69626;DHT22;56847;51.984;5.088;2023-10-19T17:41:31;19.30;78.10
69626;DHT22;56847;51.984;5.088;2023-10-19T17:44:02;19.30;78.20
69626;DHT22;56847;51.984;5.088;2023-10-19T17:46:31;19.30;78.10
69626;DHT22;56847;51.984;5.088;2023-10-19T17:49:02;19.30;77.90
69626;DHT22;56847;51.984;5.088;2023-10-19T17:51:29;19.30;77.90
69626;DHT22;56847;51.984;5.088;2023-10-19T17:53:57;19.30;77.80
69626;DHT22;56847;51.984;5.088;2023-10-19T17:56:26;19.20;77.80
69626;DHT22;56847;51.984;5.088;2023-10-19T17:58:54;19.20;77.70
69626;DHT22;56847;51.984;5.088;2023-10-19T18:01:23;19.20;77.60
69626;DHT22;56847;51.984;5.088;2023-10-19T18:03:51;19.10;77.60
69626;DHT22;56847;51.984;5.088;2023-10-19T18:06:19;19.00;77.60
69626;DHT22;56847;51.984;5.088;2023-10-19T18:08:46;18.90;77.60
69626;DHT22;56847;51.984;5.088;2023-10-19T18:11:17;18.90;77.60
69626;DHT22;56847;51.984;5.088;2023-10-19T18:13:44;18.80;77.60
69626;DHT22;56847;51.984;5.088;2023-10-19T18:16:13;18.70;77.80
69626;DHT22;56847;51.984;5.088;2023-10-19T18:18:42;18.70;77.80
69626;DHT22;56847;51.984;5.088;2023-10-19T18:21:15;18.70;77.80
69626;DHT22;56847;51.984;5.088;2023-10-19T18:23:45;18.60;77.80
69626;DHT22;56847;51.984;5.088;2023-10-19T18:26:16;18.50;77.90
69626;DHT22;56847;51.984;5.088;2023-10-19T18:28:44;18.50;78.00
69626;DHT22;56847;51.984;5.088;2023-10-19T18:31:12;18.50;78.10
69626;DHT22;56847;51.984;5.088;2023-10-19T18:33:39;18.40;78.20
69626;DHT22;56847;51.984;5.088;2023-10-19T18:36:10;18.30;78.20
69626;DHT22;56847;51.984;5.088;2023-10-19T18:38:38;18.30;78.20
69626;DHT22;56847;51.984;5.088;2023-10-19T18:41:06;18.20;78.30
69626;DHT22;56847;51.984;5.088;2023-10-19T18:43:34;18.20;78.40
69626;DHT22;56847;51.984;5.088;2023-10-19T18:46:03;18.20;78.50
69626;DHT22;56847;51.984;5.088;2023-10-19T18:48:34;18.10;78.50
69626;DHT22;56847;51.984;5.088;2023-10-19T18:51:05;18.10;78.60